createdAt,value
2017-09-19T00:01:55.236Z,16.10
2017-09-19T00:04:23.898Z,15.90
2017-09-19T00:06:52.517Z,15.80
2017-09-19T00:09:20.752Z,15.60
2017-09-19T00:11:49.397Z,15.50
2017-09-19T00:14:17.623Z,15.50
2017-09-19T00:16:46.209Z,15.60
2017-09-19T00:19:14.684Z,15.80
2017-09-19T00:21:42.924Z,15.90
2017-09-19T00:24:11.198Z,16.00
2017-09-19T00:26:39.425Z,15.90
2017-09-19T00:29:07.663Z,15.80
2017-09-19T00:31:36.093Z,15.50
2017-09-19T00:34:04.719Z,15.10
2017-09-19T00:36:32.952Z,15.10
2017-09-19T00:39:01.625Z,15.00
2017-09-19T00:41:29.883Z,15.00
2017-09-19T00:43:58.115Z,14.90
2017-09-19T00:46:26.408Z,15.00
2017-09-19T00:48:54.636Z,15.00
2017-09-19T00:51:23.503Z,14.90
2017-09-19T00:53:51.776Z,14.90
2017-09-19T00:56:20.014Z,14.90
2017-09-19T00:58:48.244Z,14.90
2017-09-19T01:01:16.504Z,14.80
2017-09-19T01:03:44.746Z,14.90
2017-09-19T01:06:12.981Z,14.80
2017-09-19T01:08:41.636Z,14.70
2017-09-19T01:11:09.864Z,14.70
2017-09-19T01:13:38.104Z,15.00
2017-09-19T01:16:06.532Z,15.00
2017-09-19T01:18:34.768Z,15.00
2017-09-19T01:21:03.405Z,15.10
2017-09-19T01:23:31.673Z,15.10
2017-09-19T01:26:00.890Z,15.20
2017-09-19T01:28:29.117Z,15.20
2017-09-19T01:30:57.877Z,15.20
2017-09-19T01:33:26.112Z,15.20
2017-09-19T01:35:54.366Z,15.30
2017-09-19T01:38:22.713Z,15.30
2017-09-19T01:40:50.944Z,15.30
2017-09-19T01:43:19.180Z,15.30
2017-09-19T01:45:47.840Z,15.30
2017-09-19T01:48:16.076Z,15.30
2017-09-19T01:50:44.808Z,15.50
2017-09-19T01:53:13.340Z,15.80
2017-09-19T01:55:42.702Z,15.90
2017-09-19T01:58:10.925Z,15.90
2017-09-19T02:00:39.212Z,15.50
2017-09-19T02:03:07.710Z,15.30
2017-09-19T02:05:35.947Z,15.20
2017-09-19T02:08:04.435Z,14.90
2017-09-19T02:10:32.671Z,14.70
2017-09-19T02:13:01.310Z,14.40
2017-09-19T02:15:29.566Z,14.40
2017-09-19T02:17:57.804Z,14.40
2017-09-19T02:20:26.438Z,14.80
2017-09-19T02:22:54.684Z,14.80
2017-09-19T02:25:22.922Z,14.90
2017-09-19T02:27:51.208Z,14.80
2017-09-19T02:30:19.431Z,14.60
2017-09-19T02:32:47.672Z,14.60
2017-09-19T02:35:16.314Z,14.70
2017-09-19T02:37:44.553Z,14.70
2017-09-19T02:40:12.783Z,14.60
2017-09-19T02:42:41.456Z,14.60
2017-09-19T02:45:09.695Z,14.70
2017-09-19T02:47:37.941Z,14.60
2017-09-19T02:50:06.753Z,14.40
2017-09-19T02:52:35.528Z,14.40
2017-09-19T02:55:04.071Z,14.20
2017-09-19T02:57:32.313Z,14.10
2017-09-19T03:00:00.550Z,14.20
2017-09-19T03:02:29.179Z,14.10
2017-09-19T03:04:57.998Z,14.10
2017-09-19T03:07:26.276Z,14.10
2017-09-19T03:09:55.420Z,14.20
2017-09-19T03:12:23.665Z,14.30
2017-09-19T03:14:52.295Z,14.30
2017-09-19T03:17:20.791Z,14.30
2017-09-19T03:19:49.284Z,14.30
2017-09-19T03:22:17.550Z,14.30
2017-09-19T03:24:45.860Z,14.20
2017-09-19T03:27:14.099Z,14.10
2017-09-19T03:29:42.332Z,14.00
2017-09-19T03:32:10.588Z,14.30
2017-09-19T03:37:13.561Z,14.60
2017-09-19T03:39:41.779Z,14.70
2017-09-19T03:42:10.020Z,14.60
2017-09-19T03:44:38.437Z,14.50
2017-09-19T03:47:06.673Z,14.40
2017-09-19T03:49:34.910Z,14.20
2017-09-19T03:52:03.201Z,14.20
2017-09-19T03:54:31.451Z,14.00
2017-09-19T03:56:59.671Z,14.00
2017-09-19T03:59:28.195Z,14.20
2017-09-19T04:01:58.095Z,14.30
2017-09-19T04:04:26.924Z,14.60
2017-09-19T04:06:55.532Z,14.60
2017-09-19T04:09:24.526Z,14.40
2017-09-19T04:11:52.847Z,14.10
2017-09-19T04:14:21.509Z,13.50
2017-09-19T04:16:49.755Z,13.50
2017-09-19T04:19:18.011Z,13.40
2017-09-19T04:21:46.274Z,13.20
2017-09-19T04:24:14.521Z,13.10
2017-09-19T04:26:43.188Z,13.40
2017-09-19T04:29:11.465Z,13.40
2017-09-19T04:31:39.715Z,13.40
2017-09-19T04:34:07.996Z,13.60
2017-09-19T04:36:36.240Z,13.60
2017-09-19T04:39:04.532Z,13.40
2017-09-19T04:41:33.100Z,13.60
2017-09-19T04:44:01.332Z,13.90
2017-09-19T04:46:29.588Z,14.00
2017-09-19T04:48:57.836Z,13.60
2017-09-19T04:51:26.352Z,13.30
2017-09-19T04:53:54.592Z,13.30
2017-09-19T04:56:22.856Z,13.40
2017-09-19T04:58:51.096Z,13.60
2017-09-19T05:01:19.347Z,13.80
2017-09-19T05:03:47.816Z,13.80
2017-09-19T05:06:16.112Z,13.60
2017-09-19T05:08:45.148Z,13.60
2017-09-19T05:11:13.484Z,13.60
2017-09-19T05:13:41.723Z,13.50
2017-09-19T05:16:09.968Z,13.70
2017-09-19T05:18:38.623Z,13.90
2017-09-19T05:21:06.876Z,13.90
2017-09-19T05:23:35.173Z,14.00
2017-09-19T05:26:03.420Z,13.70
2017-09-19T05:28:31.695Z,13.60
2017-09-19T05:30:59.945Z,13.80
2017-09-19T05:33:28.196Z,14.10
2017-09-19T05:35:56.851Z,15.10
2017-09-19T05:38:25.117Z,15.10
2017-09-19T05:40:53.410Z,15.20
2017-09-19T05:43:21.681Z,15.10
2017-09-19T05:45:49.920Z,15.30
2017-09-19T05:48:18.170Z,15.60
2017-09-19T05:50:46.987Z,16.20
2017-09-19T05:53:15.227Z,16.30
2017-09-19T05:55:43.872Z,16.60
2017-09-19T05:58:12.128Z,16.60
2017-09-19T06:00:40.394Z,16.50
2017-09-19T06:03:08.664Z,16.60
2017-09-19T06:05:36.982Z,17.10
2017-09-19T06:08:05.221Z,17.40
2017-09-19T06:10:33.501Z,17.60
2017-09-19T06:13:01.753Z,17.90
2017-09-19T06:15:30.300Z,18.10
2017-09-19T06:17:58.744Z,18.40
2017-09-19T06:20:27.025Z,18.30
2017-09-19T06:22:55.251Z,17.90
2017-09-19T06:25:23.901Z,17.50
2017-09-19T06:27:52.160Z,17.50
2017-09-19T06:30:20.448Z,17.20
2017-09-19T06:32:48.678Z,17.10
2017-09-19T06:35:16.921Z,17.20
2017-09-19T06:37:45.172Z,17.00
2017-09-19T06:40:13.676Z,17.40
2017-09-19T06:42:41.933Z,18.00
2017-09-19T06:45:10.179Z,18.60
2017-09-19T06:47:38.424Z,19.00
2017-09-19T06:50:07.250Z,19.80
2017-09-19T06:52:35.492Z,19.80
2017-09-19T06:55:04.688Z,20.90
2017-09-19T06:57:34.399Z,21.60
2017-09-19T07:00:02.959Z,21.60
2017-09-19T07:02:31.203Z,22.00
2017-09-19T07:04:59.456Z,22.40
2017-09-19T07:07:27.812Z,21.90
2017-09-19T07:09:56.344Z,20.90
2017-09-19T07:12:24.580Z,20.20
2017-09-19T07:14:52.848Z,18.90
2017-09-19T07:17:21.221Z,18.50
2017-09-19T07:19:59.062Z,20.30
2017-09-19T07:22:28.851Z,20.30
2017-09-19T07:24:57.704Z,21.80
2017-09-19T07:27:26.075Z,21.80
2017-09-19T07:29:54.494Z,21.60
2017-09-19T07:32:23.041Z,21.00
2017-09-19T07:34:51.298Z,19.70
2017-09-19T07:37:19.551Z,18.40
2017-09-19T07:39:47.801Z,18.70
2017-09-19T07:42:16.135Z,19.40
2017-09-19T07:44:44.382Z,20.50
2017-09-19T07:47:12.620Z,21.50
2017-09-19T07:49:41.261Z,22.20
2017-09-19T07:52:09.502Z,22.20
2017-09-19T07:54:37.839Z,22.60
2017-09-19T07:57:06.080Z,22.70
2017-09-19T07:59:34.324Z,23.30
2017-09-19T08:02:02.585Z,23.60
2017-09-19T08:04:31.518Z,22.60
2017-09-19T08:06:59.768Z,22.60
2017-09-19T08:09:28.005Z,22.30
2017-09-19T08:11:56.620Z,22.60
2017-09-19T08:14:25.464Z,23.50
2017-09-19T08:16:53.694Z,23.50
2017-09-19T08:19:22.114Z,23.70
2017-09-19T08:21:50.348Z,24.50
2017-09-19T08:24:18.624Z,25.20
2017-09-19T08:26:47.162Z,25.70
2017-09-19T08:29:15.401Z,26.00
2017-09-19T08:31:43.658Z,26.40
2017-09-19T08:34:11.918Z,27.20
2017-09-19T08:36:40.570Z,29.10
2017-09-19T08:39:09.257Z,29.80
2017-09-19T08:41:37.481Z,29.80
2017-09-19T08:44:05.720Z,30.50
2017-09-19T08:46:34.078Z,31.10
2017-09-19T08:49:02.312Z,31.30
2017-09-19T08:51:30.792Z,31.30
2017-09-19T08:53:59.048Z,31.60
2017-09-19T08:56:27.747Z,29.80
2017-09-19T08:58:56.446Z,29.80
2017-09-19T09:01:24.696Z,29.80
2017-09-19T09:03:53.337Z,29.30
2017-09-19T09:06:21.593Z,29.30
2017-09-19T09:08:49.868Z,28.10
2017-09-19T09:11:19.032Z,26.90
2017-09-19T09:13:47.508Z,26.70
2017-09-19T09:16:16.046Z,27.20
2017-09-19T09:18:44.276Z,28.10
2017-09-19T09:21:12.587Z,29.00
2017-09-19T09:23:41.420Z,29.70
2017-09-19T09:26:09.713Z,29.90
2017-09-19T09:28:38.429Z,28.90
2017-09-19T09:31:06.740Z,29.00
2017-09-19T09:33:35.320Z,28.80
2017-09-19T09:36:03.655Z,29.60
2017-09-19T09:38:31.951Z,29.90
2017-09-19T09:41:00.441Z,29.90
2017-09-19T09:43:28.692Z,30.20
2017-09-19T09:45:56.966Z,30.70
2017-09-19T09:48:26.051Z,30.80
2017-09-19T09:50:54.328Z,31.00
2017-09-19T09:53:22.598Z,31.50
2017-09-19T09:55:51.392Z,32.60
2017-09-19T09:58:19.988Z,32.60
2017-09-19T10:00:48.891Z,32.10
2017-09-19T10:03:17.342Z,31.70
2017-09-19T10:05:45.671Z,31.80
2017-09-19T10:08:13.922Z,31.70
2017-09-19T10:10:42.174Z,31.70
2017-09-19T10:13:10.445Z,30.90
2017-09-19T10:15:38.733Z,30.00
2017-09-19T10:18:07.047Z,29.70
2017-09-19T10:20:35.295Z,29.60
2017-09-19T10:23:03.522Z,29.90
2017-09-19T10:25:31.753Z,30.20
2017-09-19T10:28:01.178Z,30.60
2017-09-19T10:30:29.395Z,31.00
2017-09-19T10:32:57.628Z,31.50
2017-09-19T10:35:26.217Z,31.70
2017-09-19T10:37:54.574Z,32.00
2017-09-19T10:40:22.804Z,32.40
2017-09-19T10:42:51.762Z,30.90
2017-09-19T10:45:20.081Z,30.90
2017-09-19T10:47:48.889Z,31.30
2017-09-19T10:50:17.195Z,31.30
2017-09-19T10:52:45.417Z,31.20
2017-09-19T10:55:14.080Z,32.10
2017-09-19T10:57:42.319Z,32.10
2017-09-19T11:00:10.560Z,32.50
2017-09-19T11:02:38.885Z,33.10
2017-09-19T11:05:07.102Z,33.40
2017-09-19T11:07:36.239Z,33.50
2017-09-19T11:10:04.631Z,33.30
2017-09-19T11:12:32.893Z,33.20
2017-09-19T11:15:01.188Z,32.40
2017-09-19T11:17:29.744Z,32.30
2017-09-19T11:19:58.157Z,32.10
2017-09-19T11:22:26.410Z,32.00
2017-09-19T11:24:54.659Z,32.00
2017-09-19T11:27:23.184Z,31.90
2017-09-19T11:29:51.418Z,31.60
2017-09-19T11:32:19.684Z,30.90
2017-09-19T11:34:47.961Z,30.40
2017-09-19T11:37:16.190Z,29.40
2017-09-19T11:39:44.473Z,29.30
2017-09-19T11:42:12.708Z,29.60
2017-09-19T11:44:40.968Z,29.20
2017-09-19T11:47:09.552Z,29.40
2017-09-19T11:49:37.790Z,29.90
2017-09-19T11:52:06.154Z,30.60
2017-09-19T11:54:34.484Z,31.10
2017-09-19T11:57:03.119Z,30.70
2017-09-19T11:59:31.532Z,29.80
2017-09-19T12:01:59.817Z,29.70
2017-09-19T12:04:28.052Z,29.00
2017-09-19T12:06:56.321Z,29.10
2017-09-19T12:09:24.571Z,29.10
2017-09-19T12:11:52.967Z,29.00
2017-09-19T12:14:21.231Z,28.70
2017-09-19T12:16:49.533Z,28.20
2017-09-19T12:19:17.748Z,27.90
2017-09-19T12:21:46.073Z,27.70
2017-09-19T12:24:14.329Z,27.80
2017-09-19T12:26:42.560Z,27.80
2017-09-19T12:29:11.208Z,27.60
2017-09-19T12:31:39.526Z,27.60
2017-09-19T12:34:08.157Z,27.50
2017-09-19T12:36:36.393Z,27.50
2017-09-19T12:39:05.050Z,27.60
2017-09-19T12:41:33.276Z,27.60
2017-09-19T12:44:01.901Z,27.60
2017-09-19T12:46:30.143Z,26.90
2017-09-19T12:48:58.377Z,26.80
2017-09-19T12:51:27.008Z,25.70
2017-09-19T12:53:55.253Z,25.70
2017-09-19T12:56:23.484Z,25.60
2017-09-19T12:58:51.767Z,26.10
2017-09-19T13:01:20.004Z,26.80
2017-09-19T13:03:48.249Z,27.60
2017-09-19T13:06:17.503Z,28.80
2017-09-19T13:08:46.018Z,28.80
2017-09-19T13:11:14.253Z,29.30
2017-09-19T13:13:42.511Z,29.20
2017-09-19T13:16:11.029Z,28.80
2017-09-19T13:18:39.335Z,28.80
2017-09-19T13:21:07.895Z,29.20
2017-09-19T13:23:36.127Z,28.80
2017-09-19T13:26:04.383Z,28.80
2017-09-19T13:28:32.617Z,28.90
2017-09-19T13:31:12.902Z,29.20
2017-09-19T13:33:46.269Z,30.50
2017-09-19T13:36:15.354Z,30.50
2017-09-19T13:38:43.608Z,30.50
2017-09-19T13:41:11.907Z,30.60
2017-09-19T13:43:40.360Z,30.20
2017-09-19T13:46:08.605Z,29.00
2017-09-19T13:48:37.249Z,28.40
2017-09-19T13:51:05.752Z,28.40
2017-09-19T13:53:33.976Z,28.40
2017-09-19T13:56:02.225Z,28.10
2017-09-19T13:58:30.893Z,26.40
2017-09-19T14:00:59.111Z,26.40
2017-09-19T14:03:27.381Z,26.60
2017-09-19T14:05:55.680Z,26.70
2017-09-19T14:08:23.908Z,26.80
2017-09-19T14:10:52.181Z,26.90
2017-09-19T14:13:21.284Z,27.10
2017-09-19T14:15:49.560Z,27.50
2017-09-19T14:18:17.836Z,27.50
2017-09-19T14:20:46.115Z,27.50
2017-09-19T14:23:14.448Z,27.20
2017-09-19T14:25:42.687Z,26.60
2017-09-19T14:28:10.947Z,26.10
2017-09-19T14:30:39.213Z,25.60
2017-09-19T14:33:07.468Z,25.90
2017-09-19T14:35:35.948Z,26.00
2017-09-19T14:38:04.198Z,25.90
2017-09-19T14:40:32.452Z,25.50
2017-09-19T14:43:00.689Z,25.10
2017-09-19T14:45:28.959Z,24.70
2017-09-19T14:47:57.588Z,24.30
2017-09-19T14:50:25.849Z,24.30
2017-09-19T14:52:54.112Z,24.50
2017-09-19T14:55:22.356Z,24.70
2017-09-19T14:57:50.648Z,24.60
2017-09-19T15:00:19.269Z,23.60
2017-09-19T15:02:47.734Z,23.60
2017-09-19T15:05:16.261Z,23.00
2017-09-19T15:07:44.508Z,22.90
2017-09-19T15:10:12.788Z,23.00
2017-09-19T15:12:41.053Z,23.30
2017-09-19T15:15:09.273Z,23.20
2017-09-19T15:17:37.921Z,23.10
2017-09-19T15:20:06.167Z,23.10
2017-09-19T15:22:34.422Z,23.10
2017-09-19T15:25:03.121Z,22.80
2017-09-19T15:27:31.809Z,22.80
2017-09-19T15:30:00.440Z,23.00
2017-09-19T15:32:29.047Z,23.00
2017-09-19T15:34:57.300Z,22.90
2017-09-19T15:37:25.537Z,22.60
2017-09-19T15:39:53.858Z,22.60
2017-09-19T15:42:22.117Z,22.60
2017-09-19T15:44:50.390Z,22.10
2017-09-19T15:47:18.724Z,22.00
2017-09-19T15:49:47.009Z,21.90
2017-09-19T15:52:15.665Z,22.10
2017-09-19T15:54:43.919Z,22.10
2017-09-19T15:57:12.197Z,22.20
2017-09-19T15:59:40.461Z,22.30
2017-09-19T16:02:08.711Z,22.20
2017-09-19T16:04:36.936Z,22.10
2017-09-19T16:07:05.186Z,21.90
2017-09-19T16:09:33.427Z,21.70
2017-09-19T16:12:02.348Z,21.20
2017-09-19T16:14:30.649Z,21.20
2017-09-19T16:16:58.891Z,20.70
2017-09-19T16:19:27.165Z,20.40
2017-09-19T16:21:55.687Z,20.40
2017-09-19T16:24:23.924Z,20.30
2017-09-19T16:26:52.404Z,20.20
2017-09-19T16:29:20.653Z,20.20
2017-09-19T16:31:49.820Z,20.30
2017-09-19T16:34:18.082Z,20.50
2017-09-19T16:36:46.337Z,20.70
2017-09-19T16:39:14.852Z,20.80
2017-09-19T16:41:43.997Z,21.00
2017-09-19T16:44:12.229Z,21.10
2017-09-19T16:46:41.255Z,21.00
2017-09-19T16:49:09.525Z,21.10
2017-09-19T16:51:38.269Z,21.00
2017-09-19T16:54:07.050Z,21.10
2017-09-19T16:56:35.325Z,21.20
2017-09-19T16:59:04.473Z,21.20
2017-09-19T17:01:32.769Z,21.30
2017-09-19T17:04:02.047Z,21.40
2017-09-19T17:06:30.532Z,21.20
2017-09-19T17:09:01.154Z,20.90
2017-09-19T17:11:30.037Z,20.90
2017-09-19T17:13:58.252Z,20.90
2017-09-19T17:16:26.507Z,20.90
2017-09-19T17:18:55.196Z,20.70
2017-09-19T17:21:24.262Z,20.50
2017-09-19T17:23:53.617Z,20.50
2017-09-19T17:26:22.670Z,20.40
2017-09-19T17:28:51.355Z,20.30
2017-09-19T17:31:19.995Z,20.20
2017-09-19T17:33:48.278Z,20.30
2017-09-19T17:36:16.598Z,20.20
2017-09-19T17:38:44.868Z,20.30
2017-09-19T17:41:13.492Z,20.20
2017-09-19T17:43:42.287Z,20.20
2017-09-19T17:46:10.518Z,20.10
2017-09-19T17:48:39.869Z,20.00
2017-09-19T17:51:08.102Z,20.00
2017-09-19T17:53:36.964Z,20.00
2017-09-19T17:56:06.655Z,20.10
2017-09-19T17:58:34.901Z,20.10
2017-09-19T18:01:03.975Z,20.00
2017-09-19T18:03:33.295Z,20.00
2017-09-19T18:06:01.919Z,20.30
2017-09-19T18:08:33.400Z,20.50
2017-09-19T18:11:03.109Z,20.00
2017-09-19T18:13:31.328Z,20.00
2017-09-19T18:16:00.338Z,19.80
2017-09-19T18:18:28.584Z,19.50
2017-09-19T18:20:56.826Z,19.40
2017-09-19T18:23:25.915Z,19.20
2017-09-19T18:25:54.748Z,19.20
2017-09-19T18:28:23.267Z,19.10
2017-09-19T18:30:51.934Z,19.10
2017-09-19T18:33:20.216Z,19.10
2017-09-19T18:35:49.618Z,19.00
2017-09-19T18:38:18.553Z,18.90
2017-09-19T18:40:47.208Z,19.00
2017-09-19T18:43:15.920Z,19.00
2017-09-19T18:45:44.440Z,18.90
2017-09-19T18:48:14.285Z,18.60
2017-09-19T18:50:43.218Z,18.60
2017-09-19T18:53:11.872Z,18.50
2017-09-19T18:55:40.135Z,18.50
2017-09-19T18:58:09.430Z,18.40
2017-09-19T19:00:37.945Z,18.30
2017-09-19T19:03:06.985Z,18.20
2017-09-19T19:05:35.586Z,18.20
2017-09-19T19:08:03.860Z,18.20
2017-09-19T19:10:33.345Z,18.20
2017-09-19T19:13:02.308Z,18.20
2017-09-19T19:15:30.552Z,18.10
2017-09-19T19:17:59.233Z,18.20
2017-09-19T19:20:27.840Z,18.20
2017-09-19T19:22:58.340Z,18.00
2017-09-19T19:25:30.579Z,18.00
2017-09-19T19:27:58.822Z,18.00
2017-09-19T19:30:27.479Z,18.00
2017-09-19T19:32:55.916Z,18.00
2017-09-19T19:35:24.322Z,17.90
2017-09-19T19:37:52.993Z,17.90
2017-09-19T19:40:21.236Z,17.90
2017-09-19T19:42:49.497Z,17.80
2017-09-19T19:45:18.352Z,17.90
2017-09-19T19:47:46.592Z,17.90
2017-09-19T19:50:14.961Z,18.00
2017-09-19T19:52:43.388Z,18.20
2017-09-19T19:55:11.653Z,18.40
2017-09-19T19:57:40.348Z,18.60
2017-09-19T20:00:08.594Z,18.70
2017-09-19T20:02:36.869Z,18.60
2017-09-19T20:05:05.386Z,18.50
2017-09-19T20:07:33.694Z,18.50
2017-09-19T20:10:02.652Z,18.50
2017-09-19T20:12:31.043Z,18.50
2017-09-19T20:14:59.333Z,18.50
2017-09-19T20:17:28.304Z,18.30
2017-09-19T20:19:56.548Z,18.30
2017-09-19T20:22:24.826Z,18.20
2017-09-19T20:24:53.121Z,18.10
2017-09-19T20:27:21.361Z,18.00
2017-09-19T20:29:49.778Z,17.90
2017-09-19T20:32:18.030Z,18.00
2017-09-19T20:34:46.273Z,18.00
2017-09-19T20:37:14.545Z,18.00
2017-09-19T20:39:43.178Z,18.20
2017-09-19T20:42:11.445Z,18.20
2017-09-19T20:44:39.729Z,18.20
2017-09-19T20:47:08.050Z,18.40
2017-09-19T20:49:36.299Z,18.50
2017-09-19T20:52:04.572Z,18.60
2017-09-19T20:54:32.820Z,18.50
2017-09-19T20:57:01.061Z,18.40
2017-09-19T20:59:29.321Z,18.40
2017-09-19T21:01:57.956Z,18.40
2017-09-19T21:04:32.076Z,18.40
2017-09-19T21:07:05.917Z,18.40
2017-09-19T21:09:40.120Z,18.00
2017-09-19T21:12:14.228Z,17.50
2017-09-19T21:14:48.221Z,17.40
2017-09-19T21:17:22.068Z,17.30
2017-09-19T21:19:50.888Z,17.40
2017-09-19T21:22:19.204Z,17.40
2017-09-19T21:24:47.437Z,17.60
2017-09-19T21:27:15.720Z,17.70
2017-09-19T21:29:43.968Z,17.80
2017-09-19T21:32:12.621Z,17.70
2017-09-19T21:34:41.916Z,17.70
2017-09-19T21:37:10.156Z,17.50
2017-09-19T21:39:38.401Z,17.40
2017-09-19T21:42:07.060Z,17.50
2017-09-19T21:44:35.303Z,17.50
2017-09-19T21:47:03.543Z,17.40
2017-09-19T21:49:32.228Z,17.30
2017-09-19T21:52:01.025Z,17.20
2017-09-19T21:54:29.260Z,17.20
2017-09-19T21:56:57.521Z,17.20
2017-09-19T21:59:25.772Z,17.30
2017-09-19T22:01:54.025Z,17.40
2017-09-19T22:04:22.719Z,17.50
2017-09-19T22:06:51.380Z,17.40
2017-09-19T22:09:20.020Z,17.10
2017-09-19T22:11:48.269Z,17.10
2017-09-19T22:14:16.512Z,17.00
2017-09-19T22:16:44.793Z,17.10
2017-09-19T22:19:13.059Z,17.20
2017-09-19T22:21:41.315Z,17.30
2017-09-19T22:24:09.588Z,17.20
2017-09-19T22:26:37.828Z,17.10
2017-09-19T22:29:06.072Z,16.90
2017-09-19T22:31:34.745Z,17.00
2017-09-19T22:34:03.357Z,17.00
2017-09-19T22:36:31.604Z,17.10
2017-09-19T22:38:59.870Z,17.10
2017-09-19T22:41:31.856Z,17.00
2017-09-19T22:44:01.030Z,16.70
2017-09-19T22:46:29.316Z,16.40
2017-09-19T22:48:57.551Z,16.40
2017-09-19T22:51:25.796Z,16.30
2017-09-19T22:53:54.076Z,16.20
2017-09-19T22:56:22.316Z,16.30
2017-09-19T22:58:51.100Z,16.50
2017-09-19T23:01:21.173Z,16.70
2017-09-19T23:03:50.076Z,16.90
2017-09-19T23:06:18.336Z,17.10
2017-09-19T23:08:46.588Z,17.20
2017-09-19T23:11:14.834Z,17.30
2017-09-19T23:13:43.416Z,17.30
2017-09-19T23:16:11.897Z,17.00
2017-09-19T23:18:40.128Z,16.70
2017-09-19T23:21:08.397Z,16.50
2017-09-19T23:23:36.656Z,16.30
2017-09-19T23:26:05.293Z,16.40
2017-09-19T23:28:33.555Z,16.40
2017-09-19T23:31:01.798Z,16.30
2017-09-19T23:33:30.037Z,16.30
2017-09-19T23:35:58.457Z,16.40
2017-09-19T23:38:26.697Z,16.40
2017-09-19T23:40:54.937Z,16.20
2017-09-19T23:43:23.188Z,16.00
2017-09-19T23:45:51.434Z,15.60
2017-09-19T23:48:20.259Z,15.50
2017-09-19T23:50:48.508Z,15.50
2017-09-19T23:53:17.150Z,15.80
2017-09-19T23:55:45.429Z,15.90
2017-09-19T23:58:13.672Z,16.10
